Currently 65°F in Simi Valley, California, USA
65°F
70°F / 65°F
calm
0.00"
Thursday, September 23, 2021 4:24 AM PDT

Simi Valley, California Climate Summary
Typical October Day

Normal High:    81.6°F (27.6°C)
Normal Low:    56.4°F (13.6°C)
Average:    67.7°F (19.8°C)

Hour    Temperature    Wind Speed    Humidity
12:00 AM    62°F (17°C)    3 mph    60%
1:00 AM    61°F (16°C)    3 mph    60%
2:00 AM    61°F (16°C)    2 mph    60%
3:00 AM    60°F (16°C)    3 mph    60%
4:00 AM    60°F (15°C)    3 mph    61%
5:00 AM    59°F (15°C)    3 mph    61%
6:00 AM    59°F (15°C)    3 mph    62%
7:00 AM    59°F (15°C)    3 mph    63%
8:00 AM    60°F (15°C)    3 mph    63%
9:00 AM    64°F (18°C)    3 mph    59%
10:00 AM    70°F (21°C)    4 mph    51%
11:00 AM    75°F (24°C)    5 mph    43%
12:00 PM    78°F (25°C)    5 mph    38%
1:00 PM    80°F (26°C)    6 mph    36%
2:00 PM    80°F (27°C)    7 mph    36%
3:00 PM    80°F (26°C)    7 mph    38%
4:00 PM    78°F (26°C)    7 mph    40%
5:00 PM    76°F (25°C)    6 mph    43%
6:00 PM    73°F (23°C)    4 mph    47%
7:00 PM    70°F (21°C)    3 mph    53%
8:00 PM    67°F (20°C)    2 mph    56%
9:00 PM    65°F (18°C)    2 mph    57%
10:00 PM    63°F (17°C)    3 mph    58%
11:00 PM    62°F (17°C)    3 mph    60%
 

The Simi Valley, California weather pages are a service of WeatherCurrents.
Copyright ©2021  WeatherCurrents. All rights reserved. - Submit questions and comments - Privacy Policy